Time;durP1;ratioP1;P1;durP2;ratioP2;P2;SDS_P1;SDS_P2;PMS_P1;PMS_P2;Temp;Humidity;BMP_temperature;BMP_pressure;BME280_temperature;BME280_humidity;BME280_pressure;Samples;Min_cycle;Max_cycle;Signal;HPM_P1;HPM_P2
2022/08/08 00:00:21;;;;;;;7.22;4.93;;;;;;;;;;5031291;28;20036;-88
2022/08/08 00:03:26;;;;;;;7.10;4.70;;;;;;;;;;5032609;28;20534;-88
2022/08/08 00:05:55;;;;;;;6.07;4.68;;;;;;;;;;4936406;29;20027;-88
2022/08/08 00:08:21;;;;;;;5.80;4.47;;;;;;;;;;4935748;29;20050;-88
2022/08/08 00:10:52;;;;;;;6.13;4.60;;;;;;;;;;4984946;28;20040;-88
2022/08/08 00:13:32;;;;;;;6.60;4.50;;;;;;;;;;5052636;28;20027;-88
2022/08/08 00:16:06;;;;;;;8.02;5.28;;;;;;;;;;5034703;28;20498;-87
2022/08/08 00:18:38;;;;;;;7.47;4.43;;;;;;;;;;5034781;28;20028;-88
2022/08/08 00:21:05;;;;;;;5.57;4.35;;;;;;;;;;5052616;28;20033;-88
2022/08/08 00:23:46;;;;;;;6.50;4.72;;;;;;;;;;5030060;28;20032;-88
2022/08/08 00:26:16;;;;;;;5.93;4.63;;;;;;;;;;5034192;28;20517;-88
2022/08/08 00:28:46;;;;;;;6.55;4.32;;;;;;;;;;5034307;28;20064;-88
2022/08/08 00:31:15;;;;;;;5.45;4.47;;;;;;;;;;5033517;28;20110;-88
2022/08/08 00:33:43;;;;;;;6.40;4.40;;;;;;;;;;5034306;28;20430;-88
2022/08/08 00:36:15;;;;;;;6.47;5.05;;;;;;;;;;5052187;28;20025;-88
2022/08/08 00:39:10;;;;;;;8.23;5.00;;;;;;;;;;5034374;28;20605;-88
2022/08/08 00:41:55;;;;;;;5.50;4.68;;;;;;;;;;5032796;28;20041;-88
2022/08/08 00:44:32;;;;;;;5.53;4.25;;;;;;;;;;5033926;28;20490;-87
2022/08/08 00:47:07;;;;;;;5.65;4.75;;;;;;;;;;5051875;28;20083;-87
2022/08/08 00:49:33;;;;;;;6.30;4.40;;;;;;;;;;5034000;28;20478;-87
2022/08/08 00:52:05;;;;;;;6.00;4.40;;;;;;;;;;5034538;28;20025;-88
2022/08/08 00:54:49;;;;;;;6.50;4.63;;;;;;;;;;5051680;28;20021;-88
2022/08/08 00:57:21;;;;;;;5.53;4.30;;;;;;;;;;5048739;28;20033;-88
2022/08/08 01:00:06;;;;;;;6.43;4.53;;;;;;;;;;5015902;28;20072;-88
2022/08/08 01:02:55;;;;;;;7.00;4.45;;;;;;;;;;5033995;28;20060;-88
2022/08/08 01:05:24;;;;;;;5.82;4.35;;;;;;;;;;5034040;28;20108;-88
2022/08/08 01:08:08;;;;;;;6.20;4.40;;;;;;;;;;5033735;28;20486;-88
2022/08/08 01:10:53;;;;;;;7.80;4.55;;;;;;;;;;5032482;28;20021;-88
2022/08/08 01:13:38;;;;;;;6.88;4.65;;;;;;;;;;5051718;28;20025;-88
2022/08/08 01:16:04;;;;;;;6.05;4.70;;;;;;;;;;5033911;28;20021;-88
2022/08/08 01:18:36;;;;;;;6.05;4.68;;;;;;;;;;5033662;28;20025;-87
2022/08/08 01:21:20;;;;;;;6.35;4.50;;;;;;;;;;5018667;28;20029;-88
2022/08/08 01:23:55;;;;;;;5.93;4.55;;;;;;;;;;5030083;28;20387;-87
2022/08/08 01:26:24;;;;;;;8.45;4.65;;;;;;;;;;5030173;28;20026;-87
2022/08/08 01:28:50;;;;;;;7.13;5.00;;;;;;;;;;5045504;28;20053;-88
2022/08/08 01:31:50;;;;;;;6.82;4.57;;;;;;;;;;5033289;28;20052;-88
2022/08/08 01:34:19;;;;;;;7.25;5.93;;;;;;;;;;5033316;28;20112;-88
2022/08/08 01:36:55;;;;;;;7.22;5.10;;;;;;;;;;5051349;28;20083;-88
2022/08/08 01:39:33;;;;;;;5.72;4.80;;;;;;;;;;5033431;28;20053;-88
2022/08/08 01:42:07;;;;;;;6.20;4.55;;;;;;;;;;5033696;28;20516;-87
2022/08/08 01:44:39;;;;;;;5.90;4.80;;;;;;;;;;5029837;28;20103;-88
2022/08/08 01:47:09;;;;;;;6.35;5.07;;;;;;;;;;5013635;28;20152;-88
2022/08/08 01:49:42;;;;;;;6.18;4.80;;;;;;;;;;5013778;28;20034;-87
2022/08/08 01:52:08;;;;;;;6.40;5.07;;;;;;;;;;5013442;28;20080;-88
2022/08/08 01:54:43;;;;;;;6.65;5.18;;;;;;;;;;5016170;28;20021;-88
2022/08/08 01:57:33;;;;;;;5.80;4.60;;;;;;;;;;5017550;28;20564;-87
2022/08/08 02:00:08;;;;;;;5.70;4.57;;;;;;;;;;5028657;28;20037;-88
2022/08/08 02:02:56;;;;;;;6.85;5.50;;;;;;;;;;5054550;28;20017;-88
2022/08/08 02:05:40;;;;;;;7.20;5.07;;;;;;;;;;5054391;28;20486;-87
2022/08/08 02:08:21;;;;;;;6.75;5.25;;;;;;;;;;5053706;28;20033;-88
2022/08/08 02:10:53;;;;;;;5.93;4.45;;;;;;;;;;5036463;28;20479;-87
2022/08/08 02:13:25;;;;;;;6.78;5.10;;;;;;;;;;5036575;28;20031;-87
2022/08/08 02:16:03;;;;;;;6.57;5.40;;;;;;;;;;5035706;28;20063;-88
2022/08/08 02:18:32;;;;;;;7.47;5.13;;;;;;;;;;5036241;28;20437;-88
2022/08/08 02:24:09;;;;;;;7.22;5.13;;;;;;;;;;5053590;28;20140;-87
2022/08/08 02:26:40;;;;;;;7.47;5.47;;;;;;;;;;5028270;28;20490;-87
2022/08/08 02:29:23;;;;;;;7.03;5.10;;;;;;;;;;5036171;28;20021;-88
2022/08/08 02:32:08;;;;;;;8.48;5.32;;;;;;;;;;5035431;28;20025;-87
2022/08/08 02:34:45;;;;;;;7.22;5.10;;;;;;;;;;5036119;28;20029;-87
2022/08/08 02:37:43;;;;;;;6.90;5.32;;;;;;;;;;5053954;28;20024;-88
2022/08/08 02:40:19;;;;;;;6.13;5.15;;;;;;;;;;4999289;28;20057;-88
2022/08/08 02:43:13;;;;;;;6.50;5.22;;;;;;;;;;5016166;28;20346;-88
2022/08/08 02:45:51;;;;;;;5.82;4.93;;;;;;;;;;5016179;28;20116;-87
2022/08/08 02:48:39;;;;;;;7.40;5.72;;;;;;;;;;5033647;28;20441;-87
2022/08/08 02:51:24;;;;;;;6.28;5.15;;;;;;;;;;5033020;28;20502;-88
2022/08/08 02:53:53;;;;;;;6.95;5.28;;;;;;;;;;5048263;28;20470;-88
2022/08/08 02:56:28;;;;;;;6.53;5.20;;;;;;;;;;5051363;28;20029;-87
2022/08/08 02:59:28;;;;;;;7.20;5.72;;;;;;;;;;5035678;28;20398;-88
2022/08/08 03:01:54;;;;;;;6.80;5.50;;;;;;;;;;5035162;28;20029;-88
2022/08/08 03:04:32;;;;;;;6.18;5.30;;;;;;;;;;5034834;28;20086;-88
2022/08/08 03:07:27;;;;;;;6.90;5.57;;;;;;;;;;5035423;28;20025;-87
2022/08/08 03:10:11;;;;;;;7.10;5.50;;;;;;;;;;5035071;28;20029;-87
2022/08/08 03:12:56;;;;;;;6.75;5.78;;;;;;;;;;5035311;28;20053;-88
2022/08/08 03:15:29;;;;;;;6.10;5.40;;;;;;;;;;5035487;28;20490;-87
2022/08/08 03:18:01;;;;;;;6.38;5.00;;;;;;;;;;5034761;28;20079;-87
2022/08/08 03:20:27;;;;;;;7.38;5.55;;;;;;;;;;5035050;28;20040;-88
2022/08/08 03:22:54;;;;;;;8.02;5.22;;;;;;;;;;5035042;28;20402;-86
2022/08/08 03:25:22;;;;;;;6.40;5.10;;;;;;;;;;5035164;28;20032;-88
2022/08/08 03:27:54;;;;;;;6.13;5.00;;;;;;;;;;5023922;28;20060;-88
2022/08/08 03:30:20;;;;;;;7.38;5.45;;;;;;;;;;5031814;28;20097;-87
2022/08/08 03:35:36;;;;;;;6.35;5.07;;;;;;;;;;5038606;28;20493;-87
2022/08/08 03:38:02;;;;;;;7.20;5.20;;;;;;;;;;5034845;28;20044;-87
2022/08/08 03:40:29;;;;;;;6.97;5.00;;;;;;;;;;5034664;28;20165;-88
2022/08/08 03:42:55;;;;;;;7.55;5.00;;;;;;;;;;5034628;28;20115;-88
2022/08/08 03:45:24;;;;;;;7.00;5.13;;;;;;;;;;5034450;28;20107;-87
2022/08/08 03:47:58;;;;;;;8.07;5.65;;;;;;;;;;5034665;28;20025;-87
2022/08/08 03:50:25;;;;;;;7.60;4.95;;;;;;;;;;5034099;28;20055;-87
2022/08/08 03:52:51;;;;;;;6.10;4.80;;;;;;;;;;5033613;28;20029;-88
2022/08/08 03:55:18;;;;;;;6.57;5.40;;;;;;;;;;5052830;28;20027;-88
2022/08/08 03:57:48;;;;;;;6.22;5.00;;;;;;;;;;5051285;28;20036;-87
2022/08/08 04:00:15;;;;;;;6.25;4.75;;;;;;;;;;5034604;28;20020;-87
2022/08/08 04:02:42;;;;;;;7.82;5.47;;;;;;;;;;5052249;28;20033;-87
2022/08/08 04:05:09;;;;;;;6.20;4.70;;;;;;;;;;5034201;28;20025;-87
2022/08/08 04:07:38;;;;;;;6.35;5.00;;;;;;;;;;5051577;28;20067;-87
2022/08/08 04:10:05;;;;;;;7.05;5.40;;;;;;;;;;5034384;28;20092;-87
2022/08/08 04:12:31;;;;;;;6.38;4.88;;;;;;;;;;5052186;28;20044;-87
2022/08/08 04:14:57;;;;;;;6.45;5.53;;;;;;;;;;5052176;28;20017;-87
2022/08/08 04:17:23;;;;;;;6.88;4.90;;;;;;;;;;5033235;28;20513;-87
2022/08/08 04:19:50;;;;;;;6.05;4.70;;;;;;;;;;5033960;28;20025;-87
2022/08/08 04:22:15;;;;;;;6.03;5.00;;;;;;;;;;5034009;28;20386;-88
2022/08/08 04:24:42;;;;;;;5.40;4.43;;;;;;;;;;5034241;28;20029;-87
2022/08/08 04:27:08;;;;;;;6.47;4.40;;;;;;;;;;5020988;28;20405;-87
2022/08/08 04:29:34;;;;;;;6.30;4.55;;;;;;;;;;5030855;28;20029;-87
2022/08/08 04:32:00;;;;;;;8.05;5.78;;;;;;;;;;5032398;28;20049;-87
2022/08/08 04:34:26;;;;;;;6.50;4.65;;;;;;;;;;5031825;28;20018;-87
2022/08/08 04:36:52;;;;;;;7.07;4.60;;;;;;;;;;5041891;28;20029;-87
2022/08/08 04:39:18;;;;;;;6.05;4.60;;;;;;;;;;5030496;28;20053;-88
2022/08/08 04:41:44;;;;;;;6.43;4.70;;;;;;;;;;5031117;28;20533;-88
2022/08/08 04:44:10;;;;;;;6.18;5.05;;;;;;;;;;5030517;28;20033;-88
2022/08/08 04:46:36;;;;;;;6.93;4.57;;;;;;;;;;5031153;28;20034;-88
2022/08/08 04:49:02;;;;;;;7.80;4.65;;;;;;;;;;5034037;28;20025;-87
2022/08/08 04:51:28;;;;;;;7.22;4.50;;;;;;;;;;5038022;28;20068;-87
2022/08/08 04:53:54;;;;;;;6.55;5.15;;;;;;;;;;5032755;28;20026;-87
2022/08/08 04:56:20;;;;;;;5.90;4.78;;;;;;;;;;5036220;28;20017;-88
2022/08/08 04:58:46;;;;;;;6.05;4.53;;;;;;;;;;5038167;28;20032;-87
2022/08/08 05:01:12;;;;;;;5.70;4.40;;;;;;;;;;5037203;28;20480;-87
2022/08/08 05:03:38;;;;;;;7.55;4.63;;;;;;;;;;5040200;28;20133;-87
2022/08/08 05:06:04;;;;;;;6.40;4.60;;;;;;;;;;5032989;28;20061;-88
2022/08/08 05:08:30;;;;;;;5.15;3.83;;;;;;;;;;5030676;28;20033;-88
2022/08/08 05:10:56;;;;;;;6.68;4.68;;;;;;;;;;5030592;28;20025;-88
2022/08/08 05:13:22;;;;;;;6.28;4.10;;;;;;;;;;5031543;28;20025;-89
2022/08/08 05:15:48;;;;;;;5.15;3.80;;;;;;;;;;5031401;28;20024;-87
2022/08/08 05:18:15;;;;;;;6.50;4.00;;;;;;;;;;5032773;28;20498;-88
2022/08/08 05:20:41;;;;;;;5.15;3.83;;;;;;;;;;5032359;28;20026;-89
2022/08/08 05:23:07;;;;;;;6.15;3.95;;;;;;;;;;5033839;28;20041;-88
2022/08/08 05:25:33;;;;;;;6.22;4.00;;;;;;;;;;5017232;28;20037;-88
2022/08/08 05:27:59;;;;;;;4.97;3.70;;;;;;;;;;5029337;28;20056;-88
2022/08/08 05:30:25;;;;;;;5.70;3.35;;;;;;;;;;5035527;28;20033;-87
2022/08/08 05:32:52;;;;;;;6.22;3.88;;;;;;;;;;5036495;28;20505;-87
2022/08/08 05:35:21;;;;;;;5.28;3.97;;;;;;;;;;5038073;28;20065;-88
2022/08/08 05:37:48;;;;;;;5.35;3.78;;;;;;;;;;5035078;28;20439;-88
2022/08/08 05:40:14;;;;;;;4.80;3.50;;;;;;;;;;5036825;28;20076;-88
2022/08/08 05:42:42;;;;;;;5.97;3.42;;;;;;;;;;5044642;28;20022;-87
2022/08/08 05:45:09;;;;;;;5.38;3.65;;;;;;;;;;5041649;28;20040;-89
2022/08/08 05:47:36;;;;;;;5.80;3.45;;;;;;;;;;5040739;28;20083;-87
2022/08/08 05:50:06;;;;;;;5.22;3.42;;;;;;;;;;5025439;28;20026;-88
2022/08/08 05:52:36;;;;;;;5.93;3.90;;;;;;;;;;5015444;28;20029;-88
2022/08/08 05:55:03;;;;;;;5.05;3.53;;;;;;;;;;5024624;28;20022;-88
2022/08/08 05:57:30;;;;;;;6.35;3.50;;;;;;;;;;5033344;28;20030;-88
2022/08/08 05:59:57;;;;;;;4.78;3.33;;;;;;;;;;5034054;28;20115;-89
2022/08/08 06:05:10;;;;;;;4.90;3.20;;;;;;;;;;5034606;28;20164;-88
2022/08/08 06:07:41;;;;;;;5.03;3.38;;;;;;;;;;5034712;28;20482;-89
2022/08/08 06:10:08;;;;;;;4.88;3.10;;;;;;;;;;5034254;28;20026;-88
2022/08/08 06:12:35;;;;;;;5.30;3.42;;;;;;;;;;5033758;28;20029;-88
2022/08/08 06:15:02;;;;;;;5.95;3.63;;;;;;;;;;5034012;28;20101;-88
2022/08/08 06:17:29;;;;;;;6.72;3.28;;;;;;;;;;5034741;28;20025;-89
2022/08/08 06:19:55;;;;;;;5.40;3.05;;;;;;;;;;5035505;28;20087;-89
2022/08/08 06:22:21;;;;;;;6.53;3.25;;;;;;;;;;5036206;28;20029;-88
2022/08/08 06:24:47;;;;;;;5.22;2.80;;;;;;;;;;5036140;28;20483;-90
2022/08/08 06:27:16;;;;;;;7.43;3.22;;;;;;;;;;5035570;28;20491;-89
2022/08/08 06:29:42;;;;;;;5.70;3.10;;;;;;;;;;5037436;28;20598;-88
2022/08/08 06:32:13;;;;;;;4.65;2.85;;;;;;;;;;5035370;28;20056;-88
2022/08/08 06:34:39;;;;;;;5.88;2.95;;;;;;;;;;5033594;28;20026;-88
2022/08/08 06:37:08;;;;;;;4.47;2.90;;;;;;;;;;5036354;28;20056;-87
2022/08/08 06:39:34;;;;;;;4.82;3.13;;;;;;;;;;5047223;28;20171;-88
2022/08/08 06:42:01;;;;;;;4.78;3.15;;;;;;;;;;5037871;28;20052;-88
2022/08/08 06:44:28;;;;;;;6.13;3.30;;;;;;;;;;5041914;28;20025;-89
2022/08/08 06:46:54;;;;;;;4.18;2.70;;;;;;;;;;5039592;28;20036;-88
2022/08/08 06:49:21;;;;;;;7.22;3.15;;;;;;;;;;5036890;28;20040;-89
2022/08/08 06:51:47;;;;;;;6.07;2.95;;;;;;;;;;5055038;28;20021;-89
2022/08/08 06:54:14;;;;;;;7.85;3.53;;;;;;;;;;5036799;28;20032;-89
2022/08/08 06:56:41;;;;;;;7.15;2.83;;;;;;;;;;5055417;28;20461;-89
2022/08/08 06:59:07;;;;;;;7.63;2.90;;;;;;;;;;5039262;28;20045;-88
2022/08/08 07:01:47;;;;;;;8.60;3.20;;;;;;;;;;5050700;28;20018;-88
2022/08/08 07:04:16;;;;;;;6.90;2.88;;;;;;;;;;5017347;28;20025;-89
2022/08/08 07:06:44;;;;;;;4.97;2.97;;;;;;;;;;5034007;28;20025;-88
2022/08/08 07:09:15;;;;;;;5.90;2.50;;;;;;;;;;5034567;28;20021;-89
2022/08/08 07:11:42;;;;;;;6.10;2.83;;;;;;;;;;5037247;28;20021;-88
2022/08/08 07:14:13;;;;;;;5.05;2.90;;;;;;;;;;5037964;28;20017;-88
2022/08/08 07:16:45;;;;;;;4.35;2.40;;;;;;;;;;5037856;28;20116;-88
2022/08/08 07:19:11;;;;;;;5.20;2.70;;;;;;;;;;5053277;28;20060;-89
2022/08/08 07:21:54;;;;;;;4.85;2.70;;;;;;;;;;5037876;28;20025;-88
2022/08/08 07:24:25;;;;;;;4.57;2.67;;;;;;;;;;5037896;28;20029;-89
2022/08/08 07:26:52;;;;;;;4.45;2.75;;;;;;;;;;5055868;28;20071;-87
2022/08/08 07:29:19;;;;;;;7.22;2.80;;;;;;;;;;5041382;28;20045;-88
2022/08/08 07:31:45;;;;;;;4.70;2.72;;;;;;;;;;5040118;28;20025;-88
2022/08/08 07:34:11;;;;;;;5.70;2.58;;;;;;;;;;5038548;28;20025;-88
2022/08/08 07:36:38;;;;;;;6.22;2.72;;;;;;;;;;5055412;28;20060;-89
2022/08/08 07:39:06;;;;;;;4.35;2.40;;;;;;;;;;5035492;28;20069;-89
2022/08/08 07:41:33;;;;;;;5.80;2.20;;;;;;;;;;5032241;28;20029;-89
2022/08/08 07:44:00;;;;;;;5.50;2.90;;;;;;;;;;5037697;28;20051;-88
2022/08/08 07:46:26;;;;;;;5.28;2.53;;;;;;;;;;5055507;28;20538;-87
2022/08/08 07:48:52;;;;;;;4.68;2.53;;;;;;;;;;5037753;28;20418;-88
2022/08/08 07:51:18;;;;;;;6.20;3.20;;;;;;;;;;5037567;28;20021;-89
2022/08/08 07:53:44;;;;;;;6.53;2.90;;;;;;;;;;5053969;28;20028;-88
2022/08/08 07:56:12;;;;;;;4.82;2.38;;;;;;;;;;5036993;28;20033;-88
2022/08/08 07:58:39;;;;;;;4.50;2.67;;;;;;;;;;5046982;28;20060;-88
2022/08/08 08:01:09;;;;;;;4.60;2.58;;;;;;;;;;5037336;28;20108;-88
2022/08/08 08:03:41;;;;;;;7.07;2.70;;;;;;;;;;5037900;28;20051;-88
2022/08/08 08:06:08;;;;;;;5.50;2.60;;;;;;;;;;5059110;28;20036;-88
2022/08/08 08:08:34;;;;;;;4.88;2.30;;;;;;;;;;5040418;28;20028;-87
2022/08/08 08:11:01;;;;;;;8.30;2.15;;;;;;;;;;5041068;28;20032;-88
2022/08/08 08:13:30;;;;;;;4.82;2.10;;;;;;;;;;5039701;28;20514;-88
2022/08/08 08:16:06;;;;;;;3.78;2.03;;;;;;;;;;5039155;28;20028;-87
2022/08/08 08:18:45;;;;;;;5.75;2.35;;;;;;;;;;5040005;28;20033;-87
2022/08/08 08:21:11;;;;;;;5.47;2.47;;;;;;;;;;5041288;28;20055;-87
2022/08/08 08:23:37;;;;;;;4.25;2.17;;;;;;;;;;5057968;28;20021;-88
2022/08/08 08:26:04;;;;;;;5.60;2.58;;;;;;;;;;5039637;28;20025;-87
2022/08/08 08:28:30;;;;;;;5.45;2.60;;;;;;;;;;5038203;28;20036;-88
2022/08/08 08:31:03;;;;;;;5.95;2.40;;;;;;;;;;5055631;28;20025;-88
2022/08/08 08:33:29;;;;;;;4.88;2.20;;;;;;;;;;5040053;28;20021;-87
2022/08/08 08:35:55;;;;;;;6.00;2.42;;;;;;;;;;5056554;28;20040;-87
2022/08/08 08:38:21;;;;;;;8.43;2.58;;;;;;;;;;5036462;28;20022;-87
2022/08/08 08:40:48;;;;;;;4.85;2.30;;;;;;;;;;5036591;28;20052;-88
2022/08/08 08:43:15;;;;;;;5.10;2.40;;;;;;;;;;5046353;28;20029;-87
2022/08/08 08:45:42;;;;;;;4.97;2.28;;;;;;;;;;5045492;28;20021;-88
2022/08/08 08:48:08;;;;;;;4.43;2.05;;;;;;;;;;5036089;28;20044;-88
2022/08/08 08:50:37;;;;;;;6.05;2.15;;;;;;;;;;5035598;28;20044;-89
2022/08/08 08:53:04;;;;;;;5.00;2.20;;;;;;;;;;5034869;28;20487;-88
2022/08/08 08:55:33;;;;;;;4.93;2.92;;;;;;;;;;5037153;28;20017;-88
2022/08/08 08:57:59;;;;;;;6.65;2.58;;;;;;;;;;5037012;28;20024;-88
2022/08/08 09:00:25;;;;;;;5.80;2.63;;;;;;;;;;5038642;28;20502;-89
2022/08/08 09:02:52;;;;;;;5.10;2.22;;;;;;;;;;5035765;28;20025;-89
2022/08/08 09:05:20;;;;;;;5.03;2.60;;;;;;;;;;5034333;28;20020;-89
2022/08/08 09:07:46;;;;;;;6.43;2.70;;;;;;;;;;5034656;28;20553;-89
2022/08/08 09:10:15;;;;;;;5.78;2.33;;;;;;;;;;5031852;28;20062;-88
2022/08/08 09:12:45;;;;;;;4.93;2.42;;;;;;;;;;5031016;28;20017;-89
2022/08/08 09:15:12;;;;;;;4.53;2.45;;;;;;;;;;5031052;28;20048;-89
2022/08/08 09:17:38;;;;;;;4.78;2.25;;;;;;;;;;5030743;28;20116;-88
2022/08/08 09:20:05;;;;;;;4.85;2.20;;;;;;;;;;5033932;28;20037;-89
2022/08/08 09:22:33;;;;;;;3.92;2.10;;;;;;;;;;5033770;28;20025;-89
2022/08/08 09:25:00;;;;;;;5.00;2.58;;;;;;;;;;5051491;28;20024;-89
2022/08/08 09:27:27;;;;;;;4.18;2.08;;;;;;;;;;5034082;28;20108;-89
2022/08/08 09:29:53;;;;;;;4.57;2.50;;;;;;;;;;5034468;28;20029;-89
2022/08/08 09:32:47;;;;;;;6.22;2.75;;;;;;;;;;5033420;28;20546;-89
2022/08/08 09:35:21;;;;;;;4.40;2.83;;;;;;;;;;5031812;28;20033;-89
2022/08/08 09:37:48;;;;;;;6.55;2.90;;;;;;;;;;5033628;28;20136;-90
2022/08/08 09:40:18;;;;;;;6.18;3.60;;;;;;;;;;5051391;28;20106;-89
2022/08/08 09:42:45;;;;;;;6.65;3.25;;;;;;;;;;5045439;28;20252;-87
2022/08/08 09:45:21;;;;;;;6.07;3.22;;;;;;;;;;5042541;28;20045;-86
2022/08/08 09:47:48;;;;;;;9.10;3.17;;;;;;;;;;5057323;28;20474;-86
2022/08/08 09:50:19;;;;;;;6.25;2.95;;;;;;;;;;5038944;28;20025;-86
2022/08/08 09:52:50;;;;;;;7.07;3.55;;;;;;;;;;5040845;28;20021;-85
2022/08/08 09:55:16;;;;;;;6.15;3.40;;;;;;;;;;5058611;28;20116;-86
2022/08/08 09:57:45;;;;;;;6.65;3.28;;;;;;;;;;5058251;28;20033;-85
2022/08/08 10:00:13;;;;;;;7.18;3.17;;;;;;;;;;5042056;28;20021;-86
2022/08/08 10:02:41;;;;;;;7.97;4.80;;;;;;;;;;5041868;28;20021;-85
2022/08/08 10:05:18;;;;;;;6.65;4.93;;;;;;;;;;5058121;28;20033;-85
2022/08/08 10:07:50;;;;;;;6.15;3.28;;;;;;;;;;5057661;28;20025;-86
2022/08/08 10:10:25;;;;;;;7.00;3.47;;;;;;;;;;5058232;28;20544;-85
2022/08/08 10:12:52;;;;;;;6.65;4.25;;;;;;;;;;5037964;28;20028;-86
2022/08/08 10:15:18;;;;;;;5.80;3.83;;;;;;;;;;5038440;28;20079;-88
2022/08/08 10:17:48;;;;;;;5.97;3.22;;;;;;;;;;5040862;28;20029;-88
2022/08/08 10:20:15;;;;;;;6.97;3.75;;;;;;;;;;5043602;28;20036;-86
2022/08/08 10:22:51;;;;;;;6.22;3.53;;;;;;;;;;5043786;28;20022;-88
2022/08/08 10:25:21;;;;;;;5.13;3.35;;;;;;;;;;5042907;28;20026;-87
2022/08/08 10:27:50;;;;;;;6.40;3.88;;;;;;;;;;5057552;28;20061;-87
2022/08/08 10:30:16;;;;;;;5.53;3.53;;;;;;;;;;5065646;28;20026;-87
2022/08/08 10:32:42;;;;;;;5.63;4.25;;;;;;;;;;5063248;28;20096;-88
2022/08/08 10:35:13;;;;;;;5.68;3.95;;;;;;;;;;5062495;28;20029;-88
2022/08/08 10:37:41;;;;;;;6.53;4.20;;;;;;;;;;5061133;28;20033;-88
2022/08/08 10:40:13;;;;;;;8.55;3.90;;;;;;;;;;5047267;28;20457;-88
2022/08/08 10:42:40;;;;;;;5.22;3.25;;;;;;;;;;5042335;28;20040;-87
2022/08/08 10:45:07;;;;;;;5.70;3.75;;;;;;;;;;5046077;28;20474;-88
2022/08/08 10:47:33;;;;;;;5.63;3.03;;;;;;;;;;5042534;28;20115;-86
2022/08/08 10:50:04;;;;;;;5.88;3.10;;;;;;;;;;5039656;28;20055;-86
2022/08/08 10:52:35;;;;;;;6.63;3.88;;;;;;;;;;5039844;28;20506;-85
2022/08/08 10:55:01;;;;;;;6.53;3.35;;;;;;;;;;5041464;28;20047;-85
2022/08/08 10:57:27;;;;;;;5.97;3.67;;;;;;;;;;5031242;28;20538;-85
2022/08/08 10:59:59;;;;;;;6.47;3.95;;;;;;;;;;5040481;28;20453;-86
2022/08/08 11:02:26;;;;;;;6.30;4.32;;;;;;;;;;5039932;28;20037;-85
2022/08/08 11:04:56;;;;;;;9.18;3.90;;;;;;;;;;5047936;28;20029;-86
2022/08/08 11:07:34;;;;;;;6.32;3.90;;;;;;;;;;5020972;28;20024;-85
2022/08/08 11:10:00;;;;;;;5.80;4.45;;;;;;;;;;5039418;28;20387;-86
2022/08/08 11:12:26;;;;;;;6.28;4.53;;;;;;;;;;5038260;28;20117;-86
2022/08/08 11:14:52;;;;;;;6.68;4.50;;;;;;;;;;5042799;28;20045;-85
2022/08/08 11:17:21;;;;;;;6.25;4.05;;;;;;;;;;5045677;28;20056;-84
2022/08/08 11:19:48;;;;;;;7.18;5.13;;;;;;;;;;5044118;28;20029;-85
2022/08/08 11:22:14;;;;;;;8.02;5.03;;;;;;;;;;5042439;28;20406;-84
2022/08/08 11:24:42;;;;;;;7.65;5.07;;;;;;;;;;5059038;28;20029;-85
2022/08/08 11:27:09;;;;;;;7.22;5.15;;;;;;;;;;5037783;28;20082;-85
2022/08/08 11:29:35;;;;;;;7.40;5.28;;;;;;;;;;5041024;28;20021;-84
2022/08/08 11:32:02;;;;;;;8.25;6.10;;;;;;;;;;5042518;28;20044;-84
2022/08/08 11:34:32;;;;;;;8.80;5.47;;;;;;;;;;5044388;28;20048;-84
2022/08/08 11:36:59;;;;;;;9.25;5.95;;;;;;;;;;5044281;28;20088;-84
2022/08/08 11:39:32;;;;;;;11.45;6.78;;;;;;;;;;5044602;28;20037;-85
2022/08/08 11:42:01;;;;;;;9.68;7.22;;;;;;;;;;5040169;28;20045;-84
2022/08/08 11:44:31;;;;;;;9.07;6.60;;;;;;;;;;5009657;28;20033;-84
2022/08/08 11:46:57;;;;;;;8.27;6.57;;;;;;;;;;5051253;28;20028;-85
2022/08/08 11:49:25;;;;;;;9.77;7.00;;;;;;;;;;5046613;28;20028;-84
2022/08/08 11:51:53;;;;;;;8.73;7.45;;;;;;;;;;5045553;28;20544;-85
2022/08/08 11:54:56;;;;;;;9.05;7.35;;;;;;;;;;5046941;28;20024;-85
2022/08/08 11:57:27;;;;;;;9.85;7.57;;;;;;;;;;5043839;28;20041;-84
2022/08/08 11:59:58;;;;;;;10.27;7.57;;;;;;;;;;5038372;28;20034;-85
2022/08/08 12:02:28;;;;;;;9.75;6.43;;;;;;;;;;5031276;28;20063;-85
2022/08/08 12:05:00;;;;;;;8.82;6.70;;;;;;;;;;5043093;28;20097;-85
2022/08/08 12:07:28;;;;;;;8.27;6.38;;;;;;;;;;5043557;28;20025;-85
2022/08/08 12:09:59;;;;;;;8.98;6.75;;;;;;;;;;5043186;28;20025;-86
2022/08/08 12:12:25;;;;;;;9.25;6.85;;;;;;;;;;5046575;28;20052;-87
2022/08/08 12:15:01;;;;;;;9.88;6.82;;;;;;;;;;5065362;28;20013;-86
2022/08/08 12:17:38;;;;;;;8.35;6.88;;;;;;;;;;5044367;28;20499;-84
2022/08/08 12:20:05;;;;;;;9.88;7.05;;;;;;;;;;5043502;28;20132;-86
2022/08/08 12:22:31;;;;;;;8.93;6.93;;;;;;;;;;5053491;28;20083;-86
2022/08/08 12:24:58;;;;;;;9.13;6.40;;;;;;;;;;5061661;28;20526;-86
2022/08/08 12:27:24;;;;;;;9.27;6.43;;;;;;;;;;5043609;28;20768;-85
2022/08/08 12:29:55;;;;;;;9.85;7.03;;;;;;;;;;5062800;28;20031;-86
2022/08/08 12:32:21;;;;;;;9.10;6.13;;;;;;;;;;5051467;28;20024;-84
2022/08/08 12:34:51;;;;;;;7.88;6.07;;;;;;;;;;5038445;28;20022;-85
2022/08/08 12:37:25;;;;;;;7.78;6.03;;;;;;;;;;5020877;28;20100;-85
2022/08/08 12:39:51;;;;;;;10.65;6.43;;;;;;;;;;5025326;28;20072;-85
2022/08/08 12:42:18;;;;;;;7.35;6.00;;;;;;;;;;5057537;28;20029;-85
2022/08/08 12:44:44;;;;;;;9.43;6.88;;;;;;;;;;5039140;28;20086;-85
2022/08/08 12:47:11;;;;;;;7.00;6.00;;;;;;;;;;5058064;28;20043;-86
2022/08/08 12:49:38;;;;;;;7.50;6.32;;;;;;;;;;5056896;28;20021;-84
2022/08/08 12:52:05;;;;;;;8.10;5.78;;;;;;;;;;5058218;28;20548;-85
2022/08/08 12:54:35;;;;;;;8.48;6.70;;;;;;;;;;5041602;28;20025;-87
2022/08/08 12:57:14;;;;;;;7.97;6.45;;;;;;;;;;5058750;28;20021;-86
2022/08/08 12:59:50;;;;;;;8.45;6.30;;;;;;;;;;5039379;28;20079;-86
2022/08/08 13:02:25;;;;;;;8.30;6.38;;;;;;;;;;5039340;28;20056;-85
2022/08/08 13:04:52;;;;;;;8.32;7.25;;;;;;;;;;5037838;28;20021;-86
2022/08/08 13:07:18;;;;;;;9.00;6.28;;;;;;;;;;5036286;28;20030;-87
2022/08/08 13:09:57;;;;;;;8.65;6.25;;;;;;;;;;5021624;28;20025;-86
2022/08/08 13:12:27;;;;;;;7.85;6.38;;;;;;;;;;5040098;28;20018;-85
2022/08/08 13:14:54;;;;;;;9.48;6.78;;;;;;;;;;5024353;28;20033;-85
2022/08/08 13:17:22;;;;;;;9.00;6.40;;;;;;;;;;5050620;28;20048;-86
2022/08/08 13:19:48;;;;;;;10.88;7.25;;;;;;;;;;5046637;28;20009;-86
2022/08/08 13:22:15;;;;;;;8.88;7.07;;;;;;;;;;5044295;28;20029;-86
2022/08/08 13:24:41;;;;;;;8.88;6.88;;;;;;;;;;5062040;28;20029;-86
2022/08/08 13:27:18;;;;;;;8.90;7.55;;;;;;;;;;5061320;28;20021;-88
2022/08/08 13:29:51;;;;;;;9.27;7.45;;;;;;;;;;5049253;28;20052;-85
2022/08/08 13:32:18;;;;;;;9.38;7.50;;;;;;;;;;5051523;28;20036;-86
2022/08/08 13:34:48;;;;;;;11.13;9.18;;;;;;;;;;5031066;28;20028;-86
2022/08/08 13:37:15;;;;;;;10.77;7.68;;;;;;;;;;5043470;28;20025;-86
2022/08/08 13:39:41;;;;;;;8.38;6.55;;;;;;;;;;5042461;28;20045;-87
2022/08/08 13:42:07;;;;;;;9.40;6.82;;;;;;;;;;5067770;28;20021;-87
2022/08/08 13:44:33;;;;;;;8.50;6.78;;;;;;;;;;5049572;28;20025;-86
2022/08/08 13:47:00;;;;;;;7.65;6.80;;;;;;;;;;5050784;28;20035;-86
2022/08/08 13:49:29;;;;;;;11.10;7.57;;;;;;;;;;5066647;28;20018;-86
2022/08/08 13:51:55;;;;;;;9.88;6.65;;;;;;;;;;5055374;28;20025;-86
2022/08/08 13:54:22;;;;;;;9.77;6.05;;;;;;;;;;5050596;28;20067;-85
2022/08/08 13:56:58;;;;;;;8.15;5.60;;;;;;;;;;5068335;28;20021;-87
2022/08/08 13:59:30;;;;;;;12.07;5.60;;;;;;;;;;5051198;28;20017;-87
2022/08/08 14:01:56;;;;;;;7.40;5.90;;;;;;;;;;5052610;28;20052;-86
2022/08/08 14:04:24;;;;;;;7.90;5.32;;;;;;;;;;5050572;28;20041;-87
2022/08/08 14:06:57;;;;;;;8.75;6.00;;;;;;;;;;5047361;28;20025;-86
2022/08/08 14:09:29;;;;;;;7.63;5.50;;;;;;;;;;5048243;28;20024;-88
2022/08/08 14:11:57;;;;;;;16.60;7.32;;;;;;;;;;5053074;28;20025;-87
2022/08/08 14:14:33;;;;;;;8.20;5.88;;;;;;;;;;5051432;28;20039;-88
2022/08/08 14:17:02;;;;;;;7.97;6.43;;;;;;;;;;5040122;28;20104;-87
2022/08/08 14:19:34;;;;;;;8.13;6.03;;;;;;;;;;5068130;28;20107;-88
2022/08/08 14:22:00;;;;;;;;;;;;;;;;;;5051991;28;20092;-87
2022/08/08 14:24:30;;;;;;;7.78;5.38;;;;;;;;;;5054960;28;19893;-86
2022/08/08 14:26:59;;;;;;;7.88;5.32;;;;;;;;;;5044605;28;20021;-88
2022/08/08 14:29:26;;;;;;;9.25;5.53;;;;;;;;;;5043384;28;20032;-87
2022/08/08 14:31:52;;;;;;;7.65;5.68;;;;;;;;;;5046618;28;20084;-88
2022/08/08 14:34:21;;;;;;;8.23;5.57;;;;;;;;;;5043974;28;20021;-87
2022/08/08 14:36:49;;;;;;;7.28;5.43;;;;;;;;;;5051277;28;20021;-86
2022/08/08 14:39:18;;;;;;;8.30;5.38;;;;;;;;;;5067368;28;20140;-87
2022/08/08 14:41:45;;;;;;;7.65;5.68;;;;;;;;;;5068025;28;20039;-86
2022/08/08 14:44:12;;;;;;;7.25;5.35;;;;;;;;;;5072018;28;20048;-88
2022/08/08 14:46:39;;;;;;;7.25;5.25;;;;;;;;;;5063396;28;20068;-86
2022/08/08 14:49:09;;;;;;;6.43;4.72;;;;;;;;;;5050271;28;20108;-88
2022/08/08 14:51:40;;;;;;;7.47;5.43;;;;;;;;;;5048643;28;20473;-88
2022/08/08 14:54:07;;;;;;;10.23;5.70;;;;;;;;;;5061614;28;20039;-88
2022/08/08 14:56:38;;;;;;;7.93;5.00;;;;;;;;;;5047265;28;20036;-88
2022/08/08 14:59:05;;;;;;;6.35;5.32;;;;;;;;;;5064145;28;20048;-88
2022/08/08 15:01:46;;;;;;;6.93;5.03;;;;;;;;;;5044485;28;20092;-88
2022/08/08 15:04:12;;;;;;;8.82;5.20;;;;;;;;;;5051702;28;20029;-86
2022/08/08 15:06:38;;;;;;;7.85;5.43;;;;;;;;;;5042015;28;20099;-86
2022/08/08 15:09:07;;;;;;;7.60;5.53;;;;;;;;;;5048170;28;20029;-87